Canadian Empress — VX6095 — position and weather

sailwx.info

Track history (hours):
 
Tides and Currents Weather Stations Pressure Air Temp Water Temp Dewpoint Dewpoint Depression Visibility Wind Speed Wind Dir Waves Ship Positions

Canadian Empress

Last reported at 2017-Aug-13 15:00 UTC. Time now 2017-Aug-23 10:13 UTC.
Position N 45°14' W 073°59'.
Warning: this ship's position is 9 days out of date.

Length 32 m.

Type: Passenger vessel. MMSI: 314954012.

Date/timePositionNaut miles runAvg speedWind from/ knotsBaromVisibWave heightAir tempDewpointWater temp
2017-Aug-13 15:00N 45°14' W 073°59'4 8.5
2017-Aug-13 14:29N 45°18' W 073°56'0 0.5
2017-Aug-13 13:58N 45°18' W 073°56'1 0.9
2017-Aug-13 13:08N 45°19' W 073°55'1 3.2
2017-Aug-13 12:58N 45°19' W 073°55'4 8.8
2017-Aug-13 12:30N 45°22' W 073°50'4 8.7
2017-Aug-13 12:00N 45°25' W 073°46'3 5.9
2017-Aug-13 11:30N 45°26' W 073°42'0 0.0
2017-Aug-12 18:00N 45°26' W 073°42'1 2.1
2017-Aug-12 17:30N 45°26' W 073°43'4 7.5
2017-Aug-12 17:01N 45°25' W 073°48'6 7.1
2017-Aug-12 16:06N 45°24' W 073°57'0 0.9
2017-Aug-12 15:59N 45°24' W 073°57'  
2017-Aug-09 14:24N 45°29' W 074°10'4 9.6
2017-Aug-09 14:00N 45°27' W 074°05'5 9.3
2017-Aug-09 13:30N 45°26' W 073°59'2 3.9
2017-Aug-09 13:00N 45°24' W 073°57'2 3.8
2017-Aug-09 12:30N 45°24' W 073°55'4 7.9
2017-Aug-09 12:00N 45°25' W 073°49'4 8.3
2017-Aug-09 11:30N 45°25' W 073°43'1 2.5
2017-Aug-09 11:00N 45°26' W 073°42'0 0.0
2017-Aug-09 10:30N 45°26' W 073°42'0 0.0
2017-Aug-09 10:00N 45°26' W 073°42'0 0.0
2017-Aug-09 09:30N 45°26' W 073°42'0 0.0
2017-Aug-09 09:00N 45°26' W 073°42'0 0.0
2017-Aug-09 08:30N 45°26' W 073°42'0 0.0
2017-Aug-09 08:00N 45°26' W 073°42'0 0.0
2017-Aug-09 07:30N 45°26' W 073°42'0 0.0
2017-Aug-09 07:00N 45°26' W 073°42'0 0.0
2017-Aug-09 06:30N 45°26' W 073°42'0 0.0
2017-Aug-09 06:00N 45°26' W 073°42'0 0.0
2017-Aug-09 05:30N 45°26' W 073°42'0 0.0
2017-Aug-09 05:00N 45°26' W 073°42'0 0.0
2017-Aug-09 04:28N 45°26' W 073°42'0 0.0
2017-Aug-09 04:00N 45°26' W 073°42'0 0.0
2017-Aug-09 03:30N 45°26' W 073°42'0 0.0
2017-Aug-09 03:00N 45°26' W 073°42'0 0.0
2017-Aug-09 02:30N 45°26' W 073°42'0 0.0
2017-Aug-09 02:00N 45°26' W 073°42'0 0.0
2017-Aug-09 01:30N 45°26' W 073°42'0 0.0
2017-Aug-09 00:59N 45°26' W 073°42'0 0.0
2017-Aug-09 00:30N 45°26' W 073°42'0 0.0
2017-Aug-09 00:00N 45°26' W 073°42'0 0.0
2017-Aug-08 23:30N 45°26' W 073°42'0 0.0
2017-Aug-08 23:00N 45°26' W 073°42'0 0.0
2017-Aug-08 22:30N 45°26' W 073°42'0 0.0
2017-Aug-08 22:00N 45°26' W 073°42'0 0.0
2017-Aug-08 21:30N 45°26' W 073°42'0 0.0
2017-Aug-08 21:00N 45°26' W 073°42'0 0.0
2017-Aug-08 20:30N 45°26' W 073°42'0 0.0
2017-Aug-08 20:00N 45°26' W 073°42'0 0.0
2017-Aug-08 19:30N 45°26' W 073°42'0 0.0
2017-Aug-08 19:00N 45°26' W 073°42'0 0.0
2017-Aug-08 18:30N 45°26' W 073°42'0 0.0
2017-Aug-08 18:00N 45°26' W 073°42'0 0.0
2017-Aug-08 17:30N 45°26' W 073°42'1 1.5
2017-Aug-08 17:00N 45°26' W 073°43'3 5.1
2017-Aug-08 16:30N 45°26' W 073°46'2 3.6
2017-Aug-08 16:00N 45°25' W 073°49'2 3.9
2017-Aug-08 15:30N 45°26' W 073°46'1 2.7
2017-Aug-08 15:00N 45°24' W 073°46'2 4.8
2017-Aug-08 14:30N 45°23' W 073°49'3 5.1
2017-Aug-08 14:00N 45°21' W 073°52'3 5.0
2017-Aug-08 13:23N 45°19' W 073°55'1 1.8
2017-Aug-08 12:55N 45°18' W 073°56'2 3.9
2017-Aug-08 12:29N 45°17' W 073°57'4 8.1
2017-Aug-08 12:00N 45°14' W 074°00'5 9.6
2017-Aug-08 11:29N 45°14' W 074°08'  
Track history (hours):
 
Tides and Currents Weather Stations Pressure Air Temp Water Temp Dewpoint Dewpoint Depression Visibility Wind Speed Wind Dir Waves Ship Positions

Canadian Empress

Last reported at 2017-Aug-13 15:00 UTC. Time now 2017-Aug-23 10:13 UTC.
Position N 45°14' W 073°59'.
Warning: this ship's position is 9 days out of date.

Length 32 m.

Type: Passenger vessel. MMSI: 314954012.

Date/timePositionNaut miles runAvg speedWind from/ knotsBaromVisibWave heightAir tempDewpointWater temp
2017-Aug-13 15:00N 45°14' W 073°59'4 8.5
2017-Aug-13 14:29N 45°18' W 073°56'0 0.5
2017-Aug-13 13:58N 45°18' W 073°56'1 0.9
2017-Aug-13 13:08N 45°19' W 073°55'1 3.2
2017-Aug-13 12:58N 45°19' W 073°55'4 8.8
2017-Aug-13 12:30N 45°22' W 073°50'4 8.7
2017-Aug-13 12:00N 45°25' W 073°46'3 5.9
2017-Aug-13 11:30N 45°26' W 073°42'0 0.0
2017-Aug-12 18:00N 45°26' W 073°42'1 2.1
2017-Aug-12 17:30N 45°26' W 073°43'4 7.5
2017-Aug-12 17:01N 45°25' W 073°48'6 7.1
2017-Aug-12 16:06N 45°24' W 073°57'0 0.9
2017-Aug-12 15:59N 45°24' W 073°57'  
2017-Aug-09 14:24N 45°29' W 074°10'4 9.6
2017-Aug-09 14:00N 45°27' W 074°05'5 9.3
2017-Aug-09 13:30N 45°26' W 073°59'2 3.9
2017-Aug-09 13:00N 45°24' W 073°57'2 3.8
2017-Aug-09 12:30N 45°24' W 073°55'4 7.9
2017-Aug-09 12:00N 45°25' W 073°49'4 8.3
2017-Aug-09 11:30N 45°25' W 073°43'1 2.5
2017-Aug-09 11:00N 45°26' W 073°42'0 0.0
2017-Aug-09 10:30N 45°26' W 073°42'0 0.0
2017-Aug-09 10:00N 45°26' W 073°42'0 0.0
2017-Aug-09 09:30N 45°26' W 073°42'0 0.0
2017-Aug-09 09:00N 45°26' W 073°42'0 0.0
2017-Aug-09 08:30N 45°26' W 073°42'0 0.0
2017-Aug-09 08:00N 45°26' W 073°42'0 0.0
2017-Aug-09 07:30N 45°26' W 073°42'0 0.0
2017-Aug-09 07:00N 45°26' W 073°42'0 0.0
2017-Aug-09 06:30N 45°26' W 073°42'0 0.0
2017-Aug-09 06:00N 45°26' W 073°42'0 0.0
2017-Aug-09 05:30N 45°26' W 073°42'0 0.0
2017-Aug-09 05:00N 45°26' W 073°42'0 0.0
2017-Aug-09 04:28N 45°26' W 073°42'0 0.0
2017-Aug-09 04:00N 45°26' W 073°42'0 0.0
2017-Aug-09 03:30N 45°26' W 073°42'0 0.0
2017-Aug-09 03:00N 45°26' W 073°42'0 0.0
2017-Aug-09 02:30N 45°26' W 073°42'0 0.0
2017-Aug-09 02:00N 45°26' W 073°42'0 0.0
2017-Aug-09 01:30N 45°26' W 073°42'0 0.0
2017-Aug-09 00:59N 45°26' W 073°42'0 0.0
2017-Aug-09 00:30N 45°26' W 073°42'0 0.0
2017-Aug-09 00:00N 45°26' W 073°42'0 0.0
2017-Aug-08 23:30N 45°26' W 073°42'0 0.0
2017-Aug-08 23:00N 45°26' W 073°42'0 0.0
2017-Aug-08 22:30N 45°26' W 073°42'0 0.0
2017-Aug-08 22:00N 45°26' W 073°42'0 0.0
2017-Aug-08 21:30N 45°26' W 073°42'0 0.0
2017-Aug-08 21:00N 45°26' W 073°42'0 0.0
2017-Aug-08 20:30N 45°26' W 073°42'0 0.0
2017-Aug-08 20:00N 45°26' W 073°42'0 0.0
2017-Aug-08 19:30N 45°26' W 073°42'0 0.0
2017-Aug-08 19:00N 45°26' W 073°42'0 0.0
2017-Aug-08 18:30N 45°26' W 073°42'0 0.0
2017-Aug-08 18:00N 45°26' W 073°42'0 0.0
2017-Aug-08 17:30N 45°26' W 073°42'1 1.5
2017-Aug-08 17:00N 45°26' W 073°43'3 5.1
2017-Aug-08 16:30N 45°26' W 073°46'2 3.6
2017-Aug-08 16:00N 45°25' W 073°49'2 3.9
2017-Aug-08 15:30N 45°26' W 073°46'1 2.7
2017-Aug-08 15:00N 45°24' W 073°46'2 4.8
2017-Aug-08 14:30N 45°23' W 073°49'3 5.1
2017-Aug-08 14:00N 45°21' W 073°52'3 5.0
2017-Aug-08 13:23N 45°19' W 073°55'1 1.8
2017-Aug-08 12:55N 45°18' W 073°56'2 3.9
2017-Aug-08 12:29N 45°17' W 073°57'4 8.1
2017-Aug-08 12:00N 45°14' W 074°00'5 9.6
2017-Aug-08 11:29N 45°14' W 074°08'  

Dump ship's entire track history